createdAt,value
2018-11-01T00:02:28.491Z,97723.16
2018-11-01T00:04:58.643Z,97730.56
2018-11-01T00:07:28.319Z,97725.00
2018-11-01T00:09:58.094Z,97722.02
2018-11-01T00:12:28.104Z,97718.14
2018-11-01T00:14:57.885Z,97712.08
2018-11-01T00:17:27.583Z,97706.27
2018-11-01T00:19:57.334Z,97692.39
2018-11-01T00:22:27.223Z,97686.03
2018-11-01T00:24:57.011Z,97681.34
2018-11-01T00:27:26.723Z,97687.22
2018-11-01T00:29:56.434Z,97690.11
2018-11-01T00:32:26.485Z,97692.97
2018-11-01T00:34:56.483Z,97681.10
2018-11-01T00:37:26.311Z,97686.48
2018-11-01T00:39:56.184Z,97686.08
2018-11-01T00:42:25.935Z,97680.05
2018-11-01T00:44:55.727Z,97669.33
2018-11-01T00:47:26.068Z,97670.64
2018-11-01T00:49:55.938Z,97674.03
2018-11-01T00:52:25.688Z,97672.44
2018-11-01T00:54:55.674Z,97678.41
2018-11-01T00:57:25.543Z,97671.58
2018-11-01T00:59:55.355Z,97671.52
2018-11-01T01:02:25.059Z,97669.73
2018-11-01T01:04:54.569Z,97662.28
2018-11-01T01:07:24.358Z,97667.02
2018-11-01T01:09:55.671Z,97664.00
2018-11-01T01:12:25.411Z,97671.22
2018-11-01T01:14:55.611Z,97670.36
2018-11-01T01:17:25.430Z,97674.44
2018-11-01T01:20:01.010Z,97667.47
2018-11-01T01:22:34.123Z,97672.50
2018-11-01T01:25:05.978Z,97669.16
2018-11-01T01:27:35.831Z,97660.87
2018-11-01T01:30:14.633Z,97660.53
2018-11-01T01:32:44.982Z,97664.45
2018-11-01T01:35:15.122Z,97657.77
2018-11-01T01:37:45.518Z,97663.92
2018-11-01T01:40:15.650Z,97664.20
2018-11-01T01:42:52.526Z,97668.26
2018-11-01T01:45:22.607Z,97666.48
2018-11-01T01:47:52.430Z,97676.01
2018-11-01T01:50:22.280Z,97685.37
2018-11-01T01:52:52.062Z,97676.25
2018-11-01T01:55:21.827Z,97674.58
2018-11-01T01:57:51.675Z,97680.95
2018-11-01T02:00:21.799Z,97688.14
2018-11-01T02:02:52.615Z,97676.46
2018-11-01T02:05:22.439Z,97688.53
2018-11-01T02:07:52.107Z,97682.36
2018-11-01T02:10:22.063Z,97683.72
2018-11-01T02:12:51.804Z,97673.39
2018-11-01T02:15:22.025Z,97676.13
2018-11-01T02:17:51.689Z,97672.47
2018-11-01T02:20:21.915Z,97671.33
2018-11-01T02:22:51.615Z,97665.58
2018-11-01T02:25:21.442Z,97661.63
2018-11-01T02:27:56.201Z,97657.45
2018-11-01T02:30:26.078Z,97655.73
2018-11-01T02:32:56.024Z,97655.84
2018-11-01T02:35:26.063Z,97659.06
2018-11-01T02:37:55.887Z,97662.52
2018-11-01T02:40:25.732Z,97656.51
2018-11-01T02:42:55.450Z,97663.66
2018-11-01T02:45:25.063Z,97659.23
2018-11-01T02:47:54.866Z,97652.45
2018-11-01T02:50:24.649Z,97656.62
2018-11-01T02:52:54.672Z,97657.00
2018-11-01T02:55:24.749Z,97657.62
2018-11-01T02:57:54.555Z,97662.19
2018-11-01T03:00:24.389Z,97657.02
2018-11-01T03:02:54.748Z,97650.84
2018-11-01T03:05:24.875Z,97644.70
2018-11-01T03:07:54.618Z,97635.35
2018-11-01T03:10:24.419Z,97642.51
2018-11-01T03:12:54.731Z,97636.34
2018-11-01T03:15:24.483Z,97636.11
2018-11-01T03:17:54.168Z,97640.42
2018-11-01T03:20:24.291Z,97645.23
2018-11-01T03:22:54.092Z,97635.24
2018-11-01T03:25:23.943Z,97631.34
2018-11-01T03:27:54.053Z,97639.20
2018-11-01T03:30:23.871Z,97629.37
2018-11-01T03:32:53.890Z,97631.83
2018-11-01T03:35:23.695Z,97637.34
2018-11-01T03:37:53.682Z,97636.72
2018-11-01T03:40:23.521Z,97640.64
2018-11-01T03:42:53.472Z,97651.20
2018-11-01T03:45:23.381Z,97660.33
2018-11-01T03:47:53.197Z,97671.52
2018-11-01T03:50:22.968Z,97666.84
2018-11-01T03:52:52.748Z,97665.62
2018-11-01T03:55:22.907Z,97662.04
2018-11-01T03:57:52.674Z,97652.80
2018-11-01T04:00:22.563Z,97658.20
2018-11-01T04:02:52.428Z,97662.27
2018-11-01T04:05:22.196Z,97653.80
2018-11-01T04:07:51.954Z,97642.58
2018-11-01T04:10:21.738Z,97655.02
2018-11-01T04:12:51.463Z,97655.98
2018-11-01T04:15:21.328Z,97658.08
2018-11-01T04:17:51.031Z,97648.22
2018-11-01T04:20:20.958Z,97656.72
2018-11-01T04:22:50.989Z,97661.13
2018-11-01T04:25:20.786Z,97663.20
2018-11-01T04:27:50.623Z,97659.25
2018-11-01T04:30:20.403Z,97662.91
2018-11-01T04:32:50.481Z,97665.36
2018-11-01T04:35:20.375Z,97642.84
2018-11-01T04:37:50.386Z,97640.88
2018-11-01T04:40:20.777Z,97650.67
2018-11-01T04:42:50.914Z,97653.59
2018-11-01T04:45:20.741Z,97652.04
2018-11-01T04:47:50.575Z,97649.80
2018-11-01T04:50:20.502Z,97639.84
2018-11-01T04:52:50.338Z,97623.59
2018-11-01T04:55:20.135Z,97620.28
2018-11-01T04:57:49.850Z,97626.06
2018-11-01T05:00:19.687Z,97637.35
2018-11-01T05:02:49.410Z,97633.64
2018-11-01T05:05:19.143Z,97631.27
2018-11-01T05:07:48.929Z,97629.50
2018-11-01T05:10:18.637Z,97636.67
2018-11-01T05:12:48.308Z,97639.83
2018-11-01T05:15:18.234Z,97629.27
2018-11-01T05:17:47.829Z,97638.61
2018-11-01T05:20:17.584Z,97627.94
2018-11-01T05:22:47.483Z,97628.55
2018-11-01T05:25:17.421Z,97638.96
2018-11-01T05:27:47.206Z,97631.92
2018-11-01T05:30:16.958Z,97634.28
2018-11-01T05:32:46.758Z,97630.96
2018-11-01T05:35:16.741Z,97617.49
2018-11-01T05:37:46.287Z,97603.70
2018-11-01T05:40:16.138Z,97609.08
2018-11-01T05:42:46.023Z,97616.17
2018-11-01T05:45:15.878Z,97623.81
2018-11-01T05:47:45.590Z,97615.08
2018-11-01T05:50:15.322Z,97611.76
2018-11-01T05:52:45.019Z,97609.66
2018-11-01T05:55:14.775Z,97618.23
2018-11-01T05:57:44.670Z,97607.41
2018-11-01T06:00:14.844Z,97616.12
2018-11-01T06:02:46.783Z,97616.08
2018-11-01T06:05:16.514Z,97616.29
2018-11-01T06:07:56.152Z,97628.08
2018-11-01T06:10:26.342Z,97624.70
2018-11-01T06:12:56.702Z,97624.48
2018-11-01T06:18:23.753Z,97598.27
2018-11-01T06:20:53.524Z,97586.91
2018-11-01T06:23:23.436Z,97594.85
2018-11-01T06:25:53.361Z,97605.41
2018-11-01T06:28:23.122Z,97631.73
2018-11-01T06:30:52.804Z,97623.09
2018-11-01T06:33:22.479Z,97632.90
2018-11-01T06:35:53.107Z,97644.48
2018-11-01T06:38:22.993Z,97650.94
2018-11-01T06:40:52.666Z,97654.14
2018-11-01T06:43:22.367Z,97626.73
2018-11-01T06:45:51.875Z,97615.19
2018-11-01T06:48:21.377Z,97622.91
2018-11-01T06:50:51.232Z,97626.98
2018-11-01T06:53:20.991Z,97620.53
2018-11-01T06:55:50.771Z,97620.30
2018-11-01T06:58:20.617Z,97625.09
2018-11-01T07:00:50.391Z,97638.50
2018-11-01T07:03:20.174Z,97628.23
2018-11-01T07:05:49.969Z,97607.91
2018-11-01T07:08:19.768Z,97617.52
2018-11-01T07:10:49.836Z,97641.32
2018-11-01T07:13:19.729Z,97639.09
2018-11-01T07:15:49.800Z,97636.03
2018-11-01T07:18:20.025Z,97636.40
2018-11-01T07:20:49.957Z,97623.31
2018-11-01T07:23:19.926Z,97627.04
2018-11-01T07:25:49.898Z,97621.57
2018-11-01T07:28:19.750Z,97615.27
2018-11-01T07:30:49.479Z,97614.67
2018-11-01T07:33:19.235Z,97617.48
2018-11-01T07:35:49.029Z,97619.27
2018-11-01T07:38:18.817Z,97615.56
2018-11-01T07:40:48.855Z,97617.47
2018-11-01T07:43:18.903Z,97606.34
2018-11-01T07:45:48.595Z,97589.41
2018-11-01T07:48:18.222Z,97575.25
2018-11-01T07:50:47.915Z,97575.13
2018-11-01T07:53:17.675Z,97577.98
2018-11-01T07:55:47.475Z,97584.19
2018-11-01T07:58:17.303Z,97592.25
2018-11-01T08:00:46.786Z,97592.59
2018-11-01T08:03:16.310Z,97596.09
2018-11-01T08:05:46.225Z,97591.99
2018-11-01T08:08:16.020Z,97596.36
2018-11-01T08:10:45.732Z,97595.22
2018-11-01T08:13:15.476Z,97585.59
2018-11-01T08:15:45.361Z,97581.70
2018-11-01T08:18:15.198Z,97593.55
2018-11-01T08:20:44.919Z,97596.48
2018-11-01T08:23:14.739Z,97590.81
2018-11-01T08:25:44.490Z,97584.72
2018-11-01T08:28:14.287Z,97585.11
2018-11-01T08:30:44.040Z,97585.70
2018-11-01T08:33:13.887Z,97588.12
2018-11-01T08:35:43.699Z,97580.73
2018-11-01T08:38:13.506Z,97576.70
2018-11-01T08:40:43.275Z,97580.46
2018-11-01T08:43:13.163Z,97569.05
2018-11-01T08:45:43.002Z,97560.45
2018-11-01T08:48:13.119Z,97561.07
2018-11-01T08:50:42.858Z,97574.55
2018-11-01T08:53:12.713Z,97564.72
2018-11-01T08:55:43.104Z,97546.45
2018-11-01T08:58:12.907Z,97554.53
2018-11-01T09:00:42.582Z,97540.19
2018-11-01T09:03:12.327Z,97524.14
2018-11-01T09:05:42.094Z,97524.21
2018-11-01T09:08:12.000Z,97515.97
2018-11-01T09:10:41.655Z,97509.16
2018-11-01T09:13:11.443Z,97507.06
2018-11-01T09:15:41.208Z,97510.34
2018-11-01T09:18:10.947Z,97500.80
2018-11-01T09:20:40.729Z,97516.33
2018-11-01T09:23:10.642Z,97537.52
2018-11-01T09:25:40.449Z,97534.06
2018-11-01T09:28:10.435Z,97523.37
2018-11-01T09:30:40.380Z,97506.09
2018-11-01T09:33:10.047Z,97508.91
2018-11-01T09:35:39.855Z,97502.05
2018-11-01T09:38:09.500Z,97497.73
2018-11-01T09:40:39.235Z,97502.64
2018-11-01T09:43:09.460Z,97503.52
2018-11-01T09:45:39.203Z,97503.13
2018-11-01T09:48:08.879Z,97506.88
2018-11-01T09:50:38.623Z,97508.63
2018-11-01T09:53:08.507Z,97497.69
2018-11-01T09:55:38.715Z,97493.64
2018-11-01T09:58:08.394Z,97483.47
2018-11-01T10:00:38.202Z,97468.77
2018-11-01T10:03:08.002Z,97461.17
2018-11-01T10:05:37.923Z,97475.70
2018-11-01T10:08:07.662Z,97482.91
2018-11-01T10:10:37.598Z,97480.44
2018-11-01T10:13:07.303Z,97469.20
2018-11-01T10:15:37.678Z,97473.40
2018-11-01T10:18:07.701Z,97469.00
2018-11-01T10:20:37.130Z,97469.36
2018-11-01T10:23:07.069Z,97459.30
2018-11-01T10:25:36.643Z,97475.81
2018-11-01T10:28:06.685Z,97486.41
2018-11-01T10:30:36.291Z,97466.50
2018-11-01T10:33:06.253Z,97459.41
2018-11-01T10:35:36.061Z,97452.28
2018-11-01T10:38:05.812Z,97454.62
2018-11-01T10:40:35.564Z,97461.18
2018-11-01T10:43:05.218Z,97460.20
2018-11-01T10:45:34.955Z,97466.56
2018-11-01T10:48:04.768Z,97459.08
2018-11-01T10:50:34.512Z,97466.64
2018-11-01T10:53:04.288Z,97450.61
2018-11-01T10:55:34.061Z,97451.20
2018-11-01T10:58:04.112Z,97460.63
2018-11-01T11:00:39.404Z,97454.36
2018-11-01T11:03:09.016Z,97442.77
2018-11-01T11:05:39.004Z,97445.17
2018-11-01T11:08:09.162Z,97439.03
2018-11-01T11:10:38.894Z,97436.70
2018-11-01T11:13:08.675Z,97423.25
2018-11-01T11:15:38.310Z,97414.92
2018-11-01T11:18:08.501Z,97435.59
2018-11-01T11:20:38.861Z,97437.52
2018-11-01T11:23:08.394Z,97441.92
2018-11-01T11:25:38.370Z,97435.02
2018-11-01T11:28:08.138Z,97449.34
2018-11-01T11:30:38.009Z,97430.73
2018-11-01T11:33:07.737Z,97441.11
2018-11-01T11:35:37.903Z,97433.03
2018-11-01T11:38:07.624Z,97423.34
2018-11-01T11:40:37.537Z,97426.25
2018-11-01T11:43:07.439Z,97415.27
2018-11-01T11:45:37.262Z,97412.09
2018-11-01T11:48:07.587Z,97421.62
2018-11-01T11:50:37.331Z,97415.27
2018-11-01T11:53:07.143Z,97416.44
2018-11-01T11:55:37.175Z,97419.52
2018-11-01T11:58:06.971Z,97410.30
2018-11-01T12:00:36.776Z,97414.26
2018-11-01T12:03:06.695Z,97413.11
2018-11-01T12:05:36.424Z,97409.94
2018-11-01T12:08:06.134Z,97415.44
2018-11-01T12:10:36.194Z,97403.80
2018-11-01T12:13:06.570Z,97399.48
2018-11-01T12:15:36.351Z,97394.22
2018-11-01T12:18:06.195Z,97406.91
2018-11-01T12:20:36.418Z,97407.67
2018-11-01T12:23:06.278Z,97397.10
2018-11-01T12:25:36.105Z,97399.20
2018-11-01T12:28:06.158Z,97393.94
2018-11-01T12:30:35.935Z,97399.72
2018-11-01T12:33:05.598Z,97393.18
2018-11-01T12:35:35.410Z,97385.98
2018-11-01T12:38:05.431Z,97378.78
2018-11-01T12:40:35.277Z,97376.68
2018-11-01T12:43:05.075Z,97371.08
2018-11-01T12:45:34.718Z,97365.41
2018-11-01T12:48:04.400Z,97357.93
2018-11-01T12:50:34.368Z,97374.94
2018-11-01T12:53:04.397Z,97385.34
2018-11-01T12:55:34.552Z,97392.53
2018-11-01T12:58:04.282Z,97393.99
2018-11-01T13:00:34.307Z,97398.28
2018-11-01T13:03:04.111Z,97394.58
2018-11-01T13:05:33.856Z,97400.91
2018-11-01T13:08:03.561Z,97394.77
2018-11-01T13:10:33.363Z,97402.48
2018-11-01T13:13:03.287Z,97400.74
2018-11-01T13:15:33.062Z,97399.28
2018-11-01T13:18:02.904Z,97396.98
2018-11-01T13:20:32.610Z,97399.43
2018-11-01T13:23:02.322Z,97411.52
2018-11-01T13:25:32.070Z,97407.30
2018-11-01T13:28:01.839Z,97403.14
2018-11-01T13:30:31.691Z,97399.81
2018-11-01T13:33:02.319Z,97394.24
2018-11-01T13:35:32.133Z,97383.20
2018-11-01T13:38:02.178Z,97379.53
2018-11-01T13:40:32.456Z,97386.76
2018-11-01T13:43:01.808Z,97385.58
2018-11-01T13:45:31.640Z,97385.46
2018-11-01T13:48:01.451Z,97382.52
2018-11-01T13:50:31.367Z,97385.21
2018-11-01T13:53:01.363Z,97380.50
2018-11-01T13:55:31.703Z,97383.70
2018-11-01T13:58:01.452Z,97393.58
2018-11-01T14:00:31.551Z,97398.95
2018-11-01T14:03:01.291Z,97404.16
2018-11-01T14:05:31.057Z,97392.82
2018-11-01T14:08:00.822Z,97392.59
2018-11-01T14:10:30.557Z,97404.70
2018-11-01T14:13:00.331Z,97405.68
2018-11-01T14:15:30.769Z,97401.84
2018-11-01T14:18:00.643Z,97393.01
2018-11-01T14:20:30.331Z,97392.36
2018-11-01T14:23:00.147Z,97402.53
2018-11-01T14:25:29.986Z,97394.97
2018-11-01T14:27:59.719Z,97396.39
2018-11-01T14:30:30.012Z,97386.91
2018-11-01T14:32:59.811Z,97380.38
2018-11-01T14:35:29.519Z,97372.48
2018-11-01T14:37:59.306Z,97363.77
2018-11-01T14:40:29.238Z,97357.06
2018-11-01T14:42:59.778Z,97363.42
2018-11-01T14:45:29.758Z,97373.38
2018-11-01T14:47:59.522Z,97382.78
2018-11-01T14:50:29.306Z,97387.91
2018-11-01T14:52:59.457Z,97397.48
2018-11-01T14:55:30.367Z,97400.36
2018-11-01T14:58:00.091Z,97397.78
2018-11-01T15:00:28.350Z,97400.59
2018-11-01T15:02:58.110Z,97396.05
2018-11-01T15:05:27.997Z,97392.99
2018-11-01T15:07:57.982Z,97393.47
2018-11-01T15:10:27.747Z,97392.13
2018-11-01T15:12:57.487Z,97393.11
2018-11-01T15:15:27.259Z,97392.13
2018-11-01T15:17:57.043Z,97397.33
2018-11-01T15:20:26.720Z,97410.29
2018-11-01T15:22:56.502Z,97394.52
2018-11-01T15:25:26.510Z,97396.63
2018-11-01T15:27:56.310Z,97398.20
2018-11-01T15:30:26.098Z,97398.55
2018-11-01T15:32:55.875Z,97399.06
2018-11-01T15:35:25.672Z,97414.32
2018-11-01T15:37:55.519Z,97415.48
2018-11-01T15:40:25.302Z,97415.02
2018-11-01T15:42:55.047Z,97415.09
2018-11-01T15:45:24.924Z,97419.81
2018-11-01T15:47:55.209Z,97425.18
2018-11-01T15:50:25.102Z,97426.23
2018-11-01T15:52:55.222Z,97429.69
2018-11-01T15:55:25.507Z,97429.40
2018-11-01T15:57:56.128Z,97429.03
2018-11-01T16:00:27.041Z,97435.66
2018-11-01T16:02:57.027Z,97435.58
2018-11-01T16:05:27.520Z,97442.95
2018-11-01T16:07:57.706Z,97436.98
2018-11-01T16:10:28.340Z,97441.42
2018-11-01T16:12:58.884Z,97439.50
2018-11-01T16:15:28.831Z,97446.11
2018-11-01T16:17:58.527Z,97444.22
2018-11-01T16:20:28.287Z,97443.23
2018-11-01T16:22:58.319Z,97443.34
2018-11-01T16:25:27.886Z,97446.22
2018-11-01T16:27:57.714Z,97433.36
2018-11-01T16:30:27.470Z,97435.06
2018-11-01T16:32:57.734Z,97436.02
2018-11-01T16:35:27.423Z,97431.98
2018-11-01T16:37:58.800Z,97430.09
2018-11-01T16:40:28.962Z,97418.00
2018-11-01T16:43:00.044Z,97415.78
2018-11-01T16:45:29.823Z,97409.53
2018-11-01T16:47:59.636Z,97403.45
2018-11-01T16:50:30.642Z,97394.05
2018-11-01T16:53:00.442Z,97385.97
2018-11-01T16:55:30.255Z,97384.05
2018-11-01T16:58:00.860Z,97376.41
2018-11-01T17:00:31.688Z,97365.23
2018-11-01T17:03:02.379Z,97355.13
2018-11-01T17:05:32.263Z,97352.50
2018-11-01T17:08:02.324Z,97368.35
2018-11-01T17:10:32.284Z,97369.91
2018-11-01T17:13:03.241Z,97390.54
2018-11-01T17:15:34.177Z,97419.06
2018-11-01T17:18:04.083Z,97429.41
2018-11-01T17:20:35.706Z,97440.70
2018-11-01T17:23:06.060Z,97435.20
2018-11-01T17:25:35.959Z,97413.28
2018-11-01T17:28:05.948Z,97411.67
2018-11-01T17:30:36.003Z,97399.37
2018-11-01T17:33:06.171Z,97399.56
2018-11-01T17:35:35.950Z,97389.13
2018-11-01T17:38:05.910Z,97385.94
2018-11-01T17:40:36.540Z,97397.30
2018-11-01T17:43:07.214Z,97401.49
2018-11-01T17:45:37.588Z,97405.11
2018-11-01T17:48:07.800Z,97389.43
2018-11-01T17:50:38.576Z,97383.41
2018-11-01T17:53:08.759Z,97391.89
2018-11-01T17:55:39.103Z,97391.02
2018-11-01T17:58:09.122Z,97400.83
2018-11-01T18:00:40.365Z,97395.18
2018-11-01T18:03:10.433Z,97381.03
2018-11-01T18:05:40.491Z,97382.89
2018-11-01T18:08:10.548Z,97377.59
2018-11-01T18:10:40.583Z,97379.75
2018-11-01T18:13:10.555Z,97381.73
2018-11-01T18:15:40.939Z,97384.95
2018-11-01T18:18:10.860Z,97387.20
2018-11-01T18:20:40.772Z,97385.06
2018-11-01T18:23:11.000Z,97383.88
2018-11-01T18:25:46.075Z,97378.31
2018-11-01T18:28:16.894Z,97388.61
2018-11-01T18:30:47.199Z,97386.81
2018-11-01T18:33:17.211Z,97387.11
2018-11-01T18:35:47.403Z,97385.73
2018-11-01T18:38:17.219Z,97390.82
2018-11-01T18:40:47.015Z,97389.25
2018-11-01T18:43:17.035Z,97391.19
2018-11-01T18:45:46.715Z,97386.17
2018-11-01T18:48:16.911Z,97390.24
2018-11-01T18:50:46.653Z,97388.60
2018-11-01T18:53:17.163Z,97397.98
2018-11-01T18:55:46.880Z,97405.77
2018-11-01T18:58:17.088Z,97409.41
2018-11-01T19:00:47.016Z,97412.41
2018-11-01T19:03:20.790Z,97417.29
2018-11-01T19:05:50.607Z,97417.63
2018-11-01T19:08:20.666Z,97418.59
2018-11-01T19:10:50.836Z,97424.16
2018-11-01T19:13:20.773Z,97423.29
2018-11-01T19:15:50.513Z,97421.16
2018-11-01T19:18:20.344Z,97425.78
2018-11-01T19:20:50.382Z,97415.14
2018-11-01T19:23:20.347Z,97419.38
2018-11-01T19:25:50.063Z,97418.64
2018-11-01T19:28:20.071Z,97420.42
2018-11-01T19:30:50.698Z,97422.87
2018-11-01T19:33:20.467Z,97426.42
2018-11-01T19:35:50.279Z,97421.87
2018-11-01T19:38:20.898Z,97426.57
2018-11-01T19:40:50.978Z,97426.44
2018-11-01T19:43:21.034Z,97428.36
2018-11-01T19:45:50.767Z,97428.93
2018-11-01T19:48:21.244Z,97430.81
2018-11-01T19:50:51.388Z,97432.89
2018-11-01T19:53:21.576Z,97436.62
2018-11-01T19:55:51.450Z,97432.19
2018-11-01T19:58:21.656Z,97429.96
2018-11-01T20:00:51.864Z,97431.66
2018-11-01T20:03:22.294Z,97438.89
2018-11-01T20:05:52.290Z,97438.31
2018-11-01T20:08:23.057Z,97432.28
2018-11-01T20:10:53.021Z,97440.53
2018-11-01T20:13:24.276Z,97442.69
2018-11-01T20:15:54.218Z,97443.62
2018-11-01T20:18:24.321Z,97445.08
2018-11-01T20:20:54.471Z,97442.88
2018-11-01T20:23:25.281Z,97438.56
2018-11-01T20:25:55.235Z,97445.81
2018-11-01T20:28:25.231Z,97444.66
2018-11-01T20:30:55.583Z,97452.14
2018-11-01T20:33:25.494Z,97454.20
2018-11-01T20:35:55.474Z,97451.27
2018-11-01T20:38:25.446Z,97453.11
2018-11-01T20:40:55.396Z,97450.94
2018-11-01T20:43:25.320Z,97446.52
2018-11-01T20:45:55.272Z,97455.20
2018-11-01T20:48:25.453Z,97459.65
2018-11-01T20:50:56.261Z,97457.64
2018-11-01T20:53:26.063Z,97468.09
2018-11-01T20:55:56.099Z,97455.58
2018-11-01T20:58:26.005Z,97450.56
2018-11-01T21:00:55.955Z,97448.75
2018-11-01T21:03:25.969Z,97458.84
2018-11-01T21:05:56.279Z,97453.81
2018-11-01T21:08:26.499Z,97459.41
2018-11-01T21:10:56.801Z,97449.03
2018-11-01T21:13:26.593Z,97455.23
2018-11-01T21:15:56.371Z,97460.95
2018-11-01T21:18:25.875Z,97457.36
2018-11-01T21:20:55.357Z,97456.22
2018-11-01T21:23:24.912Z,97460.26
2018-11-01T21:25:54.753Z,97462.74
2018-11-01T21:28:24.727Z,97451.10
2018-11-01T21:30:54.490Z,97458.56
2018-11-01T21:33:24.370Z,97470.46
2018-11-01T21:35:54.308Z,97459.30
2018-11-01T21:38:24.159Z,97470.63
2018-11-01T21:40:54.603Z,97465.14
2018-11-01T21:43:24.467Z,97473.53
2018-11-01T21:45:54.244Z,97471.45
2018-11-01T21:48:23.889Z,97471.78
2018-11-01T21:50:54.547Z,97475.80
2018-11-01T21:53:24.313Z,97477.80
2018-11-01T21:55:54.022Z,97473.28
2018-11-01T21:58:23.843Z,97484.02
2018-11-01T22:00:54.152Z,97491.03
2018-11-01T22:03:23.938Z,97488.39
2018-11-01T22:05:53.610Z,97497.31
2018-11-01T22:08:23.355Z,97494.48
2018-11-01T22:10:53.311Z,97492.55
2018-11-01T22:13:23.074Z,97483.30
2018-11-01T22:15:52.854Z,97485.99
2018-11-01T22:18:22.590Z,97488.70
2018-11-01T22:20:52.312Z,97481.77
2018-11-01T22:23:22.351Z,97473.52
2018-11-01T22:25:52.302Z,97471.37
2018-11-01T22:28:22.090Z,97460.61
2018-11-01T22:30:51.655Z,97470.20
2018-11-01T22:33:21.433Z,97474.33
2018-11-01T22:35:51.505Z,97485.93
2018-11-01T22:38:21.427Z,97489.52
2018-11-01T22:40:51.281Z,97490.70
2018-11-01T22:43:21.378Z,97493.76
2018-11-01T22:45:51.551Z,97501.42
2018-11-01T22:48:21.462Z,97500.47
2018-11-01T22:50:51.337Z,97503.81
2018-11-01T22:53:21.111Z,97512.20
2018-11-01T22:55:50.962Z,97506.45
2018-11-01T22:58:20.835Z,97494.87
2018-11-01T23:00:56.109Z,97502.14
2018-11-01T23:03:25.852Z,97502.78
2018-11-01T23:05:55.627Z,97500.37
2018-11-01T23:08:26.158Z,97499.56
2018-11-01T23:10:55.932Z,97498.50
2018-11-01T23:13:25.902Z,97500.34
2018-11-01T23:15:55.725Z,97501.42
2018-11-01T23:18:25.856Z,97496.56
2018-11-01T23:20:56.062Z,97491.78
2018-11-01T23:23:25.802Z,97488.96
2018-11-01T23:25:56.062Z,97500.75
2018-11-01T23:28:25.842Z,97499.02
2018-11-01T23:30:55.639Z,97497.66
2018-11-01T23:33:25.561Z,97497.76
2018-11-01T23:35:59.686Z,97493.94
2018-11-01T23:38:34.592Z,97490.31
2018-11-01T23:41:09.370Z,97486.86
2018-11-01T23:43:44.310Z,97497.66
2018-11-01T23:46:19.361Z,97502.02
2018-11-01T23:48:52.518Z,97496.98
2018-11-01T23:51:22.370Z,97496.06
2018-11-01T23:53:52.738Z,97498.19
2018-11-01T23:56:22.568Z,97501.63
2018-11-01T23:58:52.335Z,97506.07
